sensor_id;sensor_type;location;lat;lon;timestamp;temperature;humidity
19646;DHT22;9971;52.446;13.452;2022-12-11T00:01:34;15.00;98.70
19646;DHT22;9971;52.446;13.452;2022-12-11T00:06:37;15.00;99.10
19646;DHT22;9971;52.446;13.452;2022-12-11T00:11:39;15.00;99.90
19646;DHT22;9971;52.446;13.452;2022-12-11T00:16:42;15.00;99.90
19646;DHT22;9971;52.446;13.452;2022-12-11T00:21:44;14.90;96.40
19646;DHT22;9971;52.446;13.452;2022-12-11T00:26:46;14.90;99.30
19646;DHT22;9971;52.446;13.452;2022-12-11T00:31:49;15.00;99.90
19646;DHT22;9971;52.446;13.452;2022-12-11T00:36:51;15.00;99.90
19646;DHT22;9971;52.446;13.452;2022-12-11T00:41:53;15.00;99.90
19646;DHT22;9971;52.446;13.452;2022-12-11T00:46:56;15.00;99.90
19646;DHT22;9971;52.446;13.452;2022-12-11T00:51:59;15.00;99.90
19646;DHT22;9971;52.446;13.452;2022-12-11T00:57:01;15.00;99.90
19646;DHT22;9971;52.446;13.452;2022-12-11T01:02:04;15.00;99.90
19646;DHT22;9971;52.446;13.452;2022-12-11T01:07:06;15.00;99.90
19646;DHT22;9971;52.446;13.452;2022-12-11T01:12:09;15.00;99.90
19646;DHT22;9971;52.446;13.452;2022-12-11T01:17:11;15.00;99.90
19646;DHT22;9971;52.446;13.452;2022-12-11T01:22:14;15.00;99.90
19646;DHT22;9971;52.446;13.452;2022-12-11T01:27:16;15.00;99.90
19646;DHT22;9971;52.446;13.452;2022-12-11T01:32:19;15.00;99.90
19646;DHT22;9971;52.446;13.452;2022-12-11T01:37:21;15.00;99.90
19646;DHT22;9971;52.446;13.452;2022-12-11T01:42:24;15.00;99.90
19646;DHT22;9971;52.446;13.452;2022-12-11T01:47:26;15.00;99.90
19646;DHT22;9971;52.446;13.452;2022-12-11T01:52:28;14.90;99.90
19646;DHT22;9971;52.446;13.452;2022-12-11T01:57:30;14.90;99.90
19646;DHT22;9971;52.446;13.452;2022-12-11T02:02:33;14.90;99.90
19646;DHT22;9971;52.446;13.452;2022-12-11T02:07:37;14.90;99.90
19646;DHT22;9971;52.446;13.452;2022-12-11T02:13:14;14.80;99.90
19646;DHT22;9971;52.446;13.452;2022-12-11T02:18:02;14.90;99.90
19646;DHT22;9971;52.446;13.452;2022-12-11T02:23:30;14.90;99.90
19646;DHT22;9971;52.446;13.452;2022-12-11T02:28:37;8.80;96.40
19646;DHT22;9971;52.446;13.452;2022-12-11T02:33:47;3.40;99.90
19646;DHT22;9971;52.446;13.452;2022-12-11T02:38:47;2.10;99.90
19646;DHT22;9971;52.446;13.452;2022-12-11T02:43:49;1.70;99.90
19646;DHT22;9971;52.446;13.452;2022-12-11T02:48:51;1.80;99.90
19646;DHT22;9971;52.446;13.452;2022-12-11T02:53:55;2.80;99.90
19646;DHT22;9971;52.446;13.452;2022-12-11T02:58:58;3.90;99.90
19646;DHT22;9971;52.446;13.452;2022-12-11T03:03:58;4.80;99.90
19646;DHT22;9971;52.446;13.452;2022-12-11T03:09:02;5.70;99.90
19646;DHT22;9971;52.446;13.452;2022-12-11T03:14:03;6.40;99.90
19646;DHT22;9971;52.446;13.452;2022-12-11T03:19:31;7.00;99.90
19646;DHT22;9971;52.446;13.452;2022-12-11T03:24:37;7.60;99.90
19646;DHT22;9971;52.446;13.452;2022-12-11T03:29:39;8.10;99.90
19646;DHT22;9971;52.446;13.452;2022-12-11T03:34:42;8.50;99.90
19646;DHT22;9971;52.446;13.452;2022-12-11T03:39:43;8.80;99.90
19646;DHT22;9971;52.446;13.452;2022-12-11T03:44:46;9.20;99.90
19646;DHT22;9971;52.446;13.452;2022-12-11T03:49:47;9.50;99.90
19646;DHT22;9971;52.446;13.452;2022-12-11T03:54:49;9.70;99.90
19646;DHT22;9971;52.446;13.452;2022-12-11T03:59:51;9.90;99.90
19646;DHT22;9971;52.446;13.452;2022-12-11T04:04:53;10.10;99.90
19646;DHT22;9971;52.446;13.452;2022-12-11T04:09:56;10.30;99.90
19646;DHT22;9971;52.446;13.452;2022-12-11T04:14:58;10.50;99.90
19646;DHT22;9971;52.446;13.452;2022-12-11T04:20:03;10.60;99.90
19646;DHT22;9971;52.446;13.452;2022-12-11T04:25:24;10.80;99.90
19646;DHT22;9971;52.446;13.452;2022-12-11T04:30:26;10.90;99.90
19646;DHT22;9971;52.446;13.452;2022-12-11T04:35:29;11.10;99.90
19646;DHT22;9971;52.446;13.452;2022-12-11T04:40:31;11.20;99.90
19646;DHT22;9971;52.446;13.452;2022-12-11T04:45:34;11.30;99.90
19646;DHT22;9971;52.446;13.452;2022-12-11T04:50:36;11.40;99.90
19646;DHT22;9971;52.446;13.452;2022-12-11T04:55:39;11.50;99.90
19646;DHT22;9971;52.446;13.452;2022-12-11T05:00:45;11.60;99.90
19646;DHT22;9971;52.446;13.452;2022-12-11T05:05:48;11.70;99.40
19646;DHT22;9971;52.446;13.452;2022-12-11T05:10:57;11.80;99.90
19646;DHT22;9971;52.446;13.452;2022-12-11T05:15:58;11.90;99.60
19646;DHT22;9971;52.446;13.452;2022-12-11T05:21:01;11.90;98.50
19646;DHT22;9971;52.446;13.452;2022-12-11T05:26:04;12.00;97.90
19646;DHT22;9971;52.446;13.452;2022-12-11T05:31:11;12.10;96.70
19646;DHT22;9971;52.446;13.452;2022-12-11T05:36:16;12.20;97.20
19646;DHT22;9971;52.446;13.452;2022-12-11T05:41:18;12.20;98.10
19646;DHT22;9971;52.446;13.452;2022-12-11T05:46:20;12.30;97.70
19646;DHT22;9971;52.446;13.452;2022-12-11T05:51:22;12.40;97.90
19646;DHT22;9971;52.446;13.452;2022-12-11T05:56:25;12.40;97.40
19646;DHT22;9971;52.446;13.452;2022-12-11T06:01:31;12.50;96.80
19646;DHT22;9971;52.446;13.452;2022-12-11T06:06:32;12.50;96.80
19646;DHT22;9971;52.446;13.452;2022-12-11T06:11:34;12.60;96.60
19646;DHT22;9971;52.446;13.452;2022-12-11T06:16:36;12.60;95.00
19646;DHT22;9971;52.446;13.452;2022-12-11T06:21:38;12.70;95.20
19646;DHT22;9971;52.446;13.452;2022-12-11T06:26:41;12.70;95.20
19646;DHT22;9971;52.446;13.452;2022-12-11T06:31:43;12.70;96.20
19646;DHT22;9971;52.446;13.452;2022-12-11T06:36:46;12.80;95.30
19646;DHT22;9971;52.446;13.452;2022-12-11T06:41:48;12.80;96.10
19646;DHT22;9971;52.446;13.452;2022-12-11T06:46:51;12.90;97.30
19646;DHT22;9971;52.446;13.452;2022-12-11T06:51:53;12.90;96.90
19646;DHT22;9971;52.446;13.452;2022-12-11T06:56:56;13.00;98.00
19646;DHT22;9971;52.446;13.452;2022-12-11T07:01:58;13.00;98.00
19646;DHT22;9971;52.446;13.452;2022-12-11T07:07:01;13.00;99.90
19646;DHT22;9971;52.446;13.452;2022-12-11T07:12:04;13.10;99.90
19646;DHT22;9971;52.446;13.452;2022-12-11T07:17:06;13.10;99.90
19646;DHT22;9971;52.446;13.452;2022-12-11T07:22:08;13.10;99.80
19646;DHT22;9971;52.446;13.452;2022-12-11T07:27:11;13.20;99.90
19646;DHT22;9971;52.446;13.452;2022-12-11T07:32:13;13.20;99.90
19646;DHT22;9971;52.446;13.452;2022-12-11T07:37:15;13.20;99.90
19646;DHT22;9971;52.446;13.452;2022-12-11T07:42:18;13.20;95.70
19646;DHT22;9971;52.446;13.452;2022-12-11T07:47:20;13.20;93.30
19646;DHT22;9971;52.446;13.452;2022-12-11T07:52:23;13.20;96.80
19646;DHT22;9971;52.446;13.452;2022-12-11T07:57:26;13.20;94.40
19646;DHT22;9971;52.446;13.452;2022-12-11T08:02:27;13.20;89.60
19646;DHT22;9971;52.446;13.452;2022-12-11T08:07:32;13.20;91.10
19646;DHT22;9971;52.446;13.452;2022-12-11T08:12:32;13.20;91.60
19646;DHT22;9971;52.446;13.452;2022-12-11T08:17:35;13.20;90.00
19646;DHT22;9971;52.446;13.452;2022-12-11T08:22:37;13.20;84.80
19646;DHT22;9971;52.446;13.452;2022-12-11T08:27:40;13.20;84.40
19646;DHT22;9971;52.446;13.452;2022-12-11T08:32:42;13.20;84.40
19646;DHT22;9971;52.446;13.452;2022-12-11T08:37:44;13.30;86.00
19646;DHT22;9971;52.446;13.452;2022-12-11T08:42:47;13.30;81.70
19646;DHT22;9971;52.446;13.452;2022-12-11T08:47:49;13.20;78.30
19646;DHT22;9971;52.446;13.452;2022-12-11T08:52:51;13.20;77.60
19646;DHT22;9971;52.446;13.452;2022-12-11T08:57:55;13.20;76.30
19646;DHT22;9971;52.446;13.452;2022-12-11T09:02:57;13.20;77.70
19646;DHT22;9971;52.446;13.452;2022-12-11T09:08:00;13.20;80.10
19646;DHT22;9971;52.446;13.452;2022-12-11T09:13:02;13.20;79.30
19646;DHT22;9971;52.446;13.452;2022-12-11T09:18:05;13.30;80.70
19646;DHT22;9971;52.446;13.452;2022-12-11T09:23:07;13.30;80.60
19646;DHT22;9971;52.446;13.452;2022-12-11T09:28:09;13.20;79.20
19646;DHT22;9971;52.446;13.452;2022-12-11T09:33:11;13.30;79.70
19646;DHT22;9971;52.446;13.452;2022-12-11T09:38:14;13.30;81.90
19646;DHT22;9971;52.446;13.452;2022-12-11T09:43:21;13.30;84.40
19646;DHT22;9971;52.446;13.452;2022-12-11T09:48:19;13.30;86.20
19646;DHT22;9971;52.446;13.452;2022-12-11T09:53:25;13.30;84.00
19646;DHT22;9971;52.446;13.452;2022-12-11T09:58:34;13.40;82.20
19646;DHT22;9971;52.446;13.452;2022-12-11T10:19:26;13.40;79.60
19646;DHT22;9971;52.446;13.452;2022-12-11T10:24:36;13.40;79.70
19646;DHT22;9971;52.446;13.452;2022-12-11T10:29:36;13.40;82.00
19646;DHT22;9971;52.446;13.452;2022-12-11T10:34:39;13.40;83.30
19646;DHT22;9971;52.446;13.452;2022-12-11T10:39:40;13.40;81.40
19646;DHT22;9971;52.446;13.452;2022-12-11T10:44:53;13.40;84.10
19646;DHT22;9971;52.446;13.452;2022-12-11T10:49:53;13.40;87.80
19646;DHT22;9971;52.446;13.452;2022-12-11T10:54:59;13.40;89.70
19646;DHT22;9971;52.446;13.452;2022-12-11T11:00:00;13.40;85.50
19646;DHT22;9971;52.446;13.452;2022-12-11T11:05:10;13.40;80.70
19646;DHT22;9971;52.446;13.452;2022-12-11T11:10:15;13.40;79.50
19646;DHT22;9971;52.446;13.452;2022-12-11T11:15:18;13.40;79.70
19646;DHT22;9971;52.446;13.452;2022-12-11T11:20:19;13.40;78.90
19646;DHT22;9971;52.446;13.452;2022-12-11T11:25:21;13.40;77.10
19646;DHT22;9971;52.446;13.452;2022-12-11T11:30:25;13.40;76.00
19646;DHT22;9971;52.446;13.452;2022-12-11T11:35:27;13.40;77.00
19646;DHT22;9971;52.446;13.452;2022-12-11T11:40:30;13.40;77.50
19646;DHT22;9971;52.446;13.452;2022-12-11T11:45:36;13.40;78.50
19646;DHT22;9971;52.446;13.452;2022-12-11T11:50:36;13.40;78.50
19646;DHT22;9971;52.446;13.452;2022-12-11T11:55:42;13.40;78.00
19646;DHT22;9971;52.446;13.452;2022-12-11T12:00:40;13.40;77.10
19646;DHT22;9971;52.446;13.452;2022-12-11T12:05:52;13.40;77.80
19646;DHT22;9971;52.446;13.452;2022-12-11T12:11:06;13.40;79.00
19646;DHT22;9971;52.446;13.452;2022-12-11T12:16:07;13.40;77.10
19646;DHT22;9971;52.446;13.452;2022-12-11T12:21:26;13.40;77.90
19646;DHT22;9971;52.446;13.452;2022-12-11T12:26:27;13.40;77.30
19646;DHT22;9971;52.446;13.452;2022-12-11T12:31:33;13.40;76.60
19646;DHT22;9971;52.446;13.452;2022-12-11T12:36:59;13.40;74.60
19646;DHT22;9971;52.446;13.452;2022-12-11T12:42:06;13.40;74.30
19646;DHT22;9971;52.446;13.452;2022-12-11T12:47:08;13.30;74.10
19646;DHT22;9971;52.446;13.452;2022-12-11T12:52:27;13.30;74.80
19646;DHT22;9971;52.446;13.452;2022-12-11T12:57:27;13.30;75.20
19646;DHT22;9971;52.446;13.452;2022-12-11T13:02:29;13.30;75.20
19646;DHT22;9971;52.446;13.452;2022-12-11T13:07:31;13.30;75.40
19646;DHT22;9971;52.446;13.452;2022-12-11T13:12:40;13.30;76.60
19646;DHT22;9971;52.446;13.452;2022-12-11T13:17:40;13.30;75.50
19646;DHT22;9971;52.446;13.452;2022-12-11T13:22:52;13.30;74.40
19646;DHT22;9971;52.446;13.452;2022-12-11T13:27:51;13.20;74.10
19646;DHT22;9971;52.446;13.452;2022-12-11T13:33:02;13.20;72.80
19646;DHT22;9971;52.446;13.452;2022-12-11T13:38:05;13.20;74.20
19646;DHT22;9971;52.446;13.452;2022-12-11T13:43:17;13.20;74.80
19646;DHT22;9971;52.446;13.452;2022-12-11T13:48:27;13.20;75.20
19646;DHT22;9971;52.446;13.452;2022-12-11T13:53:28;13.20;75.40
19646;DHT22;9971;52.446;13.452;2022-12-11T13:58:34;13.20;75.80
19646;DHT22;9971;52.446;13.452;2022-12-11T14:03:37;13.20;76.50
19646;DHT22;9971;52.446;13.452;2022-12-11T14:08:38;13.20;76.90
19646;DHT22;9971;52.446;13.452;2022-12-11T14:13:39;13.30;77.20
19646;DHT22;9971;52.446;13.452;2022-12-11T14:18:41;13.20;75.80
19646;DHT22;9971;52.446;13.452;2022-12-11T14:23:49;13.30;78.60
19646;DHT22;9971;52.446;13.452;2022-12-11T14:28:46;13.20;75.70
19646;DHT22;9971;52.446;13.452;2022-12-11T14:33:50;13.20;75.40
19646;DHT22;9971;52.446;13.452;2022-12-11T14:38:57;13.20;75.60
19646;DHT22;9971;52.446;13.452;2022-12-11T14:43:58;13.20;74.90
19646;DHT22;9971;52.446;13.452;2022-12-11T14:49:02;13.20;75.20
19646;DHT22;9971;52.446;13.452;2022-12-11T14:54:03;13.20;74.70
19646;DHT22;9971;52.446;13.452;2022-12-11T14:59:05;13.20;75.70
19646;DHT22;9971;52.446;13.452;2022-12-11T15:04:29;13.20;75.60
19646;DHT22;9971;52.446;13.452;2022-12-11T15:09:36;13.20;74.90
19646;DHT22;9971;52.446;13.452;2022-12-11T15:14:47;13.20;75.70
19646;DHT22;9971;52.446;13.452;2022-12-11T15:19:48;13.20;75.50
19646;DHT22;9971;52.446;13.452;2022-12-11T15:24:50;13.20;75.60
19646;DHT22;9971;52.446;13.452;2022-12-11T15:29:51;13.20;74.60
19646;DHT22;9971;52.446;13.452;2022-12-11T15:34:54;13.20;74.60
19646;DHT22;9971;52.446;13.452;2022-12-11T15:39:56;13.20;75.60
19646;DHT22;9971;52.446;13.452;2022-12-11T15:44:58;13.10;75.70
19646;DHT22;9971;52.446;13.452;2022-12-11T15:50:06;13.10;75.90
19646;DHT22;9971;52.446;13.452;2022-12-11T15:55:03;13.10;76.70
19646;DHT22;9971;52.446;13.452;2022-12-11T16:00:06;13.10;76.80
19646;DHT22;9971;52.446;13.452;2022-12-11T16:05:08;13.10;76.30
19646;DHT22;9971;52.446;13.452;2022-12-11T16:10:13;13.10;76.70
19646;DHT22;9971;52.446;13.452;2022-12-11T16:15:13;13.10;76.70
19646;DHT22;9971;52.446;13.452;2022-12-11T16:20:16;13.10;76.00
19646;DHT22;9971;52.446;13.452;2022-12-11T16:25:18;13.10;76.70
19646;DHT22;9971;52.446;13.452;2022-12-11T16:30:20;13.10;76.80
19646;DHT22;9971;52.446;13.452;2022-12-11T16:35:23;13.10;76.70
19646;DHT22;9971;52.446;13.452;2022-12-11T16:40:25;13.10;76.10
19646;DHT22;9971;52.446;13.452;2022-12-11T16:45:28;13.10;76.00
19646;DHT22;9971;52.446;13.452;2022-12-11T16:50:30;13.10;76.10
19646;DHT22;9971;52.446;13.452;2022-12-11T16:55:33;13.00;76.40
19646;DHT22;9971;52.446;13.452;2022-12-11T17:00:35;13.00;76.30
19646;DHT22;9971;52.446;13.452;2022-12-11T17:05:38;13.00;76.80
19646;DHT22;9971;52.446;13.452;2022-12-11T17:10:40;13.00;76.80
19646;DHT22;9971;52.446;13.452;2022-12-11T17:15:42;13.00;75.70
19646;DHT22;9971;52.446;13.452;2022-12-11T17:20:44;13.00;76.40
19646;DHT22;9971;52.446;13.452;2022-12-11T17:25:47;8.00;85.20
19646;DHT22;9971;52.446;13.452;2022-12-11T17:30:48;3.30;99.90
19646;DHT22;9971;52.446;13.452;2022-12-11T17:35:51;2.10;99.90
19646;DHT22;9971;52.446;13.452;2022-12-11T17:40:53;1.70;99.90
19646;DHT22;9971;52.446;13.452;2022-12-11T17:45:55;1.60;99.90
19646;DHT22;9971;52.446;13.452;2022-12-11T17:51:00;1.50;99.90
19646;DHT22;9971;52.446;13.452;2022-12-11T17:56:00;1.50;99.90
19646;DHT22;9971;52.446;13.452;2022-12-11T18:01:05;1.40;99.90
19646;DHT22;9971;52.446;13.452;2022-12-11T18:06:07;1.30;99.90
19646;DHT22;9971;52.446;13.452;2022-12-11T18:11:11;1.30;99.90
19646;DHT22;9971;52.446;13.452;2022-12-11T18:16:23;1.20;99.90
19646;DHT22;9971;52.446;13.452;2022-12-11T18:21:25;1.40;99.90
19646;DHT22;9971;52.446;13.452;2022-12-11T18:26:25;2.30;99.90
19646;DHT22;9971;52.446;13.452;2022-12-11T18:31:27;3.30;99.90
19646;DHT22;9971;52.446;13.452;2022-12-11T18:36:30;4.10;99.90
19646;DHT22;9971;52.446;13.452;2022-12-11T18:41:32;4.90;99.90
19646;DHT22;9971;52.446;13.452;2022-12-11T18:46:34;5.50;99.90
19646;DHT22;9971;52.446;13.452;2022-12-11T18:51:37;6.10;99.90
19646;DHT22;9971;52.446;13.452;2022-12-11T18:56:39;6.60;99.90
19646;DHT22;9971;52.446;13.452;2022-12-11T19:01:42;7.00;99.90
19646;DHT22;9971;52.446;13.452;2022-12-11T19:06:44;7.30;99.90
19646;DHT22;9971;52.446;13.452;2022-12-11T19:11:46;7.70;99.90
19646;DHT22;9971;52.446;13.452;2022-12-11T19:16:49;8.00;99.90
19646;DHT22;9971;52.446;13.452;2022-12-11T19:21:51;8.20;99.90
19646;DHT22;9971;52.446;13.452;2022-12-11T19:26:54;8.40;99.90
19646;DHT22;9971;52.446;13.452;2022-12-11T19:31:57;8.60;99.90
19646;DHT22;9971;52.446;13.452;2022-12-11T19:36:59;8.80;99.90
19646;DHT22;9971;52.446;13.452;2022-12-11T19:42:01;9.00;99.90
19646;DHT22;9971;52.446;13.452;2022-12-11T19:47:04;9.20;99.90
19646;DHT22;9971;52.446;13.452;2022-12-11T19:52:06;9.30;99.90
19646;DHT22;9971;52.446;13.452;2022-12-11T19:57:09;9.50;99.90
19646;DHT22;9971;52.446;13.452;2022-12-11T20:02:11;9.60;99.90
19646;DHT22;9971;52.446;13.452;2022-12-11T20:07:14;9.70;99.90
19646;DHT22;9971;52.446;13.452;2022-12-11T20:12:16;9.90;99.90
19646;DHT22;9971;52.446;13.452;2022-12-11T20:17:18;10.00;99.90
19646;DHT22;9971;52.446;13.452;2022-12-11T20:22:21;10.10;99.90
19646;DHT22;9971;52.446;13.452;2022-12-11T20:27:23;10.20;99.90
19646;DHT22;9971;52.446;13.452;2022-12-11T20:32:26;10.30;99.90
19646;DHT22;9971;52.446;13.452;2022-12-11T20:37:28;10.40;99.90
19646;DHT22;9971;52.446;13.452;2022-12-11T20:42:30;10.50;99.90
19646;DHT22;9971;52.446;13.452;2022-12-11T20:47:32;10.60;99.90
19646;DHT22;9971;52.446;13.452;2022-12-11T20:52:35;10.70;99.90
19646;DHT22;9971;52.446;13.452;2022-12-11T20:57:37;10.70;99.90
19646;DHT22;9971;52.446;13.452;2022-12-11T21:02:40;10.80;99.90
19646;DHT22;9971;52.446;13.452;2022-12-11T21:07:42;10.90;99.90
19646;DHT22;9971;52.446;13.452;2022-12-11T21:12:45;10.90;99.90
19646;DHT22;9971;52.446;13.452;2022-12-11T21:17:47;11.00;99.90
19646;DHT22;9971;52.446;13.452;2022-12-11T21:22:49;11.00;99.90
19646;DHT22;9971;52.446;13.452;2022-12-11T21:27:52;11.10;99.90
19646;DHT22;9971;52.446;13.452;2022-12-11T21:32:55;11.20;99.90
19646;DHT22;9971;52.446;13.452;2022-12-11T21:37:57;11.20;99.90
19646;DHT22;9971;52.446;13.452;2022-12-11T21:43:00;11.30;99.40
19646;DHT22;9971;52.446;13.452;2022-12-11T21:48:02;11.30;99.20
19646;DHT22;9971;52.446;13.452;2022-12-11T21:53:04;11.30;98.60
19646;DHT22;9971;52.446;13.452;2022-12-11T21:58:07;11.30;97.70
19646;DHT22;9971;52.446;13.452;2022-12-11T22:03:09;11.30;98.40
19646;DHT22;9971;52.446;13.452;2022-12-11T22:08:11;11.30;98.10
19646;DHT22;9971;52.446;13.452;2022-12-11T22:13:14;11.40;97.80
19646;DHT22;9971;52.446;13.452;2022-12-11T22:18:16;11.40;98.30
19646;DHT22;9971;52.446;13.452;2022-12-11T22:23:18;11.50;97.90
19646;DHT22;9971;52.446;13.452;2022-12-11T22:28:21;11.50;97.30
19646;DHT22;9971;52.446;13.452;2022-12-11T22:33:23;11.50;97.80
19646;DHT22;9971;52.446;13.452;2022-12-11T22:38:25;11.60;98.00
19646;DHT22;9971;52.446;13.452;2022-12-11T22:43:27;11.60;98.00
19646;DHT22;9971;52.446;13.452;2022-12-11T22:48:29;11.60;98.30
19646;DHT22;9971;52.446;13.452;2022-12-11T22:53:31;11.70;98.70
19646;DHT22;9971;52.446;13.452;2022-12-11T22:58:33;11.70;99.70
19646;DHT22;9971;52.446;13.452;2022-12-11T23:03:36;11.80;99.70
19646;DHT22;9971;52.446;13.452;2022-12-11T23:08:38;11.80;99.30
19646;DHT22;9971;52.446;13.452;2022-12-11T23:13:40;11.80;99.10
19646;DHT22;9971;52.446;13.452;2022-12-11T23:18:42;11.90;98.70
19646;DHT22;9971;52.446;13.452;2022-12-11T23:23:45;11.90;98.60
19646;DHT22;9971;52.446;13.452;2022-12-11T23:28:47;11.90;98.30
19646;DHT22;9971;52.446;13.452;2022-12-11T23:33:49;11.90;98.00
19646;DHT22;9971;52.446;13.452;2022-12-11T23:38:51;11.90;97.10
19646;DHT22;9971;52.446;13.452;2022-12-11T23:43:53;12.00;96.40
19646;DHT22;9971;52.446;13.452;2022-12-11T23:48:56;12.00;96.70
19646;DHT22;9971;52.446;13.452;2022-12-11T23:53:58;12.00;96.30
19646;DHT22;9971;52.446;13.452;2022-12-11T23:59:01;6.00;99.90
